Time;durP1;ratioP1;P1;durP2;ratioP2;P2;SDS_P1;SDS_P2;PMS_P1;PMS_P2;Temp;Humidity;BMP_temperature;BMP_pressure;BME280_temperature;BME280_humidity;BME280_pressure;Samples;Min_cycle;Max_cycle;Signal;HPM_P1;HPM_P2
2021/12/03 00:02:26;;;;;;;2.22;1.98;;;21.90;47.50;;;;;;5048598;28;20197;-69
2021/12/03 00:04:52;;;;;;;3.90;2.10;;;22.00;47.60;;;;;;5047808;28;20175;-69
2021/12/03 00:07:18;;;;;;;1.98;1.88;;;22.00;47.60;;;;;;5015403;28;20245;-69
2021/12/03 00:09:44;;;;;;;2.75;1.70;;;21.90;47.50;;;;;;5033063;28;20183;-69
2021/12/03 00:12:11;;;;;;;2.78;1.92;;;21.90;47.50;;;;;;5033028;28;20179;-68
2021/12/03 00:14:36;;;;;;;1.95;1.75;;;21.90;47.50;;;;;;5015179;28;20230;-69
2021/12/03 00:17:03;;;;;;;1.67;1.58;;;22.00;47.60;;;;;;5015457;28;20246;-69
2021/12/03 00:19:29;;;;;;;1.65;1.55;;;22.00;47.60;;;;;;5048035;28;20191;-68
2021/12/03 00:21:55;;;;;;;2.08;1.80;;;21.90;47.50;;;;;;5031503;28;20249;-69
2021/12/03 00:24:21;;;;;;;1.77;1.67;;;22.00;47.50;;;;;;5015065;28;20171;-68
2021/12/03 00:26:47;;;;;;;1.67;1.58;;;22.00;47.50;;;;;;5015019;28;20183;-69
2021/12/03 00:29:13;;;;;;;2.13;1.92;;;22.00;47.50;;;;;;5031427;28;20199;-68
2021/12/03 00:31:39;;;;;;;1.60;1.50;;;22.00;47.50;;;;;;5047961;28;20202;-69
2021/12/03 00:34:04;;;;;;;1.80;1.70;;;22.00;47.50;;;;;;5014698;28;20618;-69
2021/12/03 00:36:30;;;;;;;1.73;1.63;;;22.00;47.60;;;;;;5031609;28;20183;-69
2021/12/03 00:38:59;;;;;;;4.05;1.70;;;22.00;47.50;;;;;;5031067;28;20278;-69
2021/12/03 00:41:34;;;;;;;1.60;1.50;;;22.00;47.60;;;;;;5031221;28;20705;-69
2021/12/03 00:44:00;;;;;;;1.90;1.70;;;22.00;47.50;;;;;;5031639;28;20178;-69
2021/12/03 00:46:26;;;;;;;1.70;1.60;;;22.00;47.60;;;;;;5031415;28;20187;-69
2021/12/03 00:48:55;;;;;;;1.75;1.63;;;22.00;47.60;;;;;;5031266;28;20191;-69
2021/12/03 00:51:25;;;;;;;1.50;1.40;;;21.90;47.50;;;;;;5047732;28;20308;-69
2021/12/03 00:53:52;;;;;;;1.55;1.45;;;22.00;47.60;;;;;;5014855;28;20202;-69
2021/12/03 00:56:17;;;;;;;1.55;1.45;;;22.00;47.60;;;;;;5014655;28;20757;-69
2021/12/03 00:58:45;;;;;;;1.50;1.40;;;22.00;47.60;;;;;;5047732;28;20195;-69
2021/12/03 01:01:10;;;;;;;1.40;1.30;;;21.90;47.50;;;;;;5031094;28;20205;-69
2021/12/03 01:03:38;;;;;;;1.60;1.50;;;22.00;47.50;;;;;;5030922;28;20195;-69
2021/12/03 01:06:05;;;;;;;2.58;1.90;;;22.00;47.50;;;;;;5031075;28;20183;-69
2021/12/03 01:08:31;;;;;;;1.58;1.48;;;21.90;47.50;;;;;;5047466;28;20183;-68
2021/12/03 01:10:58;;;;;;;1.73;1.55;;;21.90;47.40;;;;;;5014597;28;20203;-69
2021/12/03 01:13:24;;;;;;;1.73;1.58;;;21.90;47.40;;;;;;5047676;28;20231;-69
2021/12/03 01:15:50;;;;;;;1.65;1.55;;;21.90;47.30;;;;;;5030967;28;20628;-68
2021/12/03 01:18:16;;;;;;;1.60;1.50;;;21.90;47.30;;;;;;5018227;28;20179;-69
2021/12/03 01:20:44;;;;;;;1.60;1.50;;;21.90;47.30;;;;;;5035114;28;20238;-69
2021/12/03 01:23:12;;;;;;;1.50;1.40;;;21.90;47.10;;;;;;5018399;28;20230;-69
2021/12/03 01:25:39;;;;;;;1.58;1.48;;;21.90;47.10;;;;;;5018660;28;20266;-69
2021/12/03 01:28:05;;;;;;;1.50;1.40;;;21.90;47.10;;;;;;5034796;28;20678;-68
2021/12/03 01:30:33;;;;;;;1.48;1.30;;;21.90;47.10;;;;;;5051414;28;20206;-69
2021/12/03 01:33:05;;;;;;;2.25;1.35;;;21.90;47.10;;;;;;5034954;28;20199;-69
2021/12/03 01:35:31;;;;;;;1.65;1.55;;;21.90;47.10;;;;;;5018378;28;20234;-69
2021/12/03 01:37:57;;;;;;;1.65;1.55;;;21.90;47.10;;;;;;5038782;28;20265;-69
2021/12/03 01:40:26;;;;;;;1.75;1.50;;;21.90;47.20;;;;;;5054410;28;20289;-69
2021/12/03 01:42:53;;;;;;;1.70;1.60;;;21.90;47.30;;;;;;5038047;28;20182;-69
2021/12/03 01:45:28;;;;;;;1.50;1.40;;;21.90;47.30;;;;;;5037733;28;20194;-69
2021/12/03 01:47:58;;;;;;;1.27;1.20;;;21.90;47.20;;;;;;5037632;28;20225;-69
2021/12/03 01:50:31;;;;;;;1.60;1.30;;;21.90;47.30;;;;;;5037777;28;20209;-69
2021/12/03 01:52:57;;;;;;;1.40;1.30;;;21.90;47.20;;;;;;5071088;28;20171;-68
2021/12/03 01:55:23;;;;;;;1.30;1.20;;;21.90;47.20;;;;;;5037712;28;20233;-68
2021/12/03 01:57:51;;;;;;;1.30;1.20;;;21.90;47.30;;;;;;5070676;28;20194;-69
2021/12/03 02:00:35;;;;;;;1.38;1.27;;;21.90;47.20;;;;;;5070772;28;20255;-69
2021/12/03 02:03:01;;;;;;;1.60;1.50;;;21.90;47.10;;;;;;5037675;28;20666;-69
2021/12/03 02:05:28;;;;;;;1.40;1.30;;;21.90;47.00;;;;;;5054374;28;20182;-68
2021/12/03 02:07:54;;;;;;;1.30;1.20;;;21.90;46.90;;;;;;5054899;28;20189;-69
2021/12/03 02:10:22;;;;;;;1.38;1.27;;;21.80;47.00;;;;;;5053884;28;20221;-69
2021/12/03 02:12:49;;;;;;;1.40;1.30;;;21.90;47.00;;;;;;5055077;28;20217;-69
2021/12/03 02:15:17;;;;;;;1.30;1.20;;;21.90;47.00;;;;;;5054986;28;20194;-68
2021/12/03 02:17:43;;;;;;;1.35;1.25;;;21.90;47.10;;;;;;5037008;28;20269;-68
2021/12/03 02:20:12;;;;;;;1.52;1.42;;;21.90;47.10;;;;;;5053841;28;20268;-68
2021/12/03 02:22:39;;;;;;;1.40;1.30;;;21.90;47.10;;;;;;5070767;28;20216;-69
2021/12/03 02:25:10;;;;;;;1.50;1.40;;;21.90;47.10;;;;;;5053649;28;20678;-69
2021/12/03 02:27:36;;;;;;;1.45;1.30;;;21.90;47.10;;;;;;5036917;28;20187;-69
2021/12/03 02:30:05;;;;;;;1.88;1.40;;;21.90;47.10;;;;;;5036703;28;20202;-69
2021/12/03 02:32:32;;;;;;;1.30;1.20;;;21.80;47.10;;;;;;5053607;28;20634;-69
2021/12/03 02:34:57;;;;;;;1.50;1.33;;;21.80;47.10;;;;;;5064964;28;20660;-68
2021/12/03 02:37:23;;;;;;;1.35;1.25;;;21.90;47.10;;;;;;5036738;28;20269;-68
2021/12/03 02:39:49;;;;;;;0.95;0.95;;;21.90;47.10;;;;;;5053142;28;20198;-69
2021/12/03 02:42:15;;;;;;;1.40;1.30;;;21.90;47.10;;;;;;5036994;28;20182;-69
2021/12/03 02:44:41;;;;;;;1.40;1.30;;;21.90;47.10;;;;;;5053491;28;20222;-69
2021/12/03 02:47:07;;;;;;;1.13;1.10;;;21.90;47.00;;;;;;5053456;28;20203;-69
2021/12/03 02:49:41;;;;;;;1.38;1.23;;;21.80;47.00;;;;;;5053064;28;20196;-68
2021/12/03 02:52:10;;;;;;;1.30;1.20;;;21.90;46.90;;;;;;5053027;28;20193;-68
2021/12/03 02:54:36;;;;;;;1.40;1.30;;;21.90;46.80;;;;;;5036443;28;20206;-69
2021/12/03 02:57:03;;;;;;;1.20;1.13;;;21.90;46.90;;;;;;5053113;28;20189;-69
2021/12/03 02:59:33;;;;;;;1.30;1.20;;;21.90;47.00;;;;;;5054032;28;20210;-68
2021/12/03 03:02:01;;;;;;;1.10;1.10;;;21.90;47.00;;;;;;5053114;28;20186;-69
2021/12/03 03:04:27;;;;;;;1.27;1.17;;;21.90;47.00;;;;;;5053589;28;20186;-69
2021/12/03 03:06:53;;;;;;;0.90;0.90;;;21.90;47.00;;;;;;5053220;28;20186;-69
2021/12/03 03:09:20;;;;;;;1.58;1.30;;;21.90;46.90;;;;;;5052664;28;20186;-69
2021/12/03 03:11:46;;;;;;;2.33;1.15;;;21.90;47.00;;;;;;5052718;28;20207;-68
2021/12/03 03:14:13;;;;;;;1.20;1.17;;;21.90;47.00;;;;;;5052926;28;20206;-69
2021/12/03 03:16:39;;;;;;;1.20;1.10;;;21.80;46.90;;;;;;5035934;28;20190;-69
2021/12/03 03:19:17;;;;;;;0.90;0.90;;;21.90;47.00;;;;;;5036109;28;20182;-69
2021/12/03 03:21:45;;;;;;;1.20;1.10;;;21.90;47.00;;;;;;5052863;28;20214;-68
2021/12/03 03:24:13;;;;;;;1.42;1.33;;;21.90;47.00;;;;;;5052505;28;20179;-69
2021/12/03 03:26:41;;;;;;;1.08;1.08;;;21.90;46.90;;;;;;5052485;28;20197;-69
2021/12/03 03:29:11;;;;;;;1.45;1.15;;;21.90;46.80;;;;;;5026041;28;20187;-67
2021/12/03 03:31:38;;;;;;;1.50;1.35;;;21.80;46.70;;;;;;5060868;28;20206;-68
2021/12/03 03:34:07;;;;;;;1.23;1.13;;;21.90;46.80;;;;;;5043404;28;20195;-67
2021/12/03 03:36:36;;;;;;;1.30;1.20;;;21.80;47.30;;;;;;5045357;28;20244;-69
2021/12/03 03:39:07;;;;;;;1.17;1.17;;;21.80;46.60;;;;;;5041768;28;20535;-68
2021/12/03 03:41:33;;;;;;;1.10;1.10;;;21.90;46.70;;;;;;5042518;28;20202;-69
2021/12/03 03:44:00;;;;;;;1.20;1.10;;;21.90;46.70;;;;;;5044503;28;20187;-69
2021/12/03 03:46:26;;;;;;;1.33;1.10;;;21.90;46.70;;;;;;5026662;28;20269;-69
2021/12/03 03:48:52;;;;;;;1.27;1.17;;;21.80;46.70;;;;;;5054026;28;20680;-69
2021/12/03 03:51:19;;;;;;;1.38;1.27;;;21.80;46.80;;;;;;5032049;28;20218;-68
2021/12/03 03:53:45;;;;;;;1.30;1.20;;;21.90;46.80;;;;;;5043511;28;20754;-69
2021/12/03 03:56:11;;;;;;;1.98;1.02;;;21.80;46.80;;;;;;5036885;28;20233;-69
2021/12/03 03:58:38;;;;;;;1.17;1.00;;;21.90;46.80;;;;;;5029894;28;20264;-68
2021/12/03 04:01:05;;;;;;;1.42;1.33;;;21.90;46.80;;;;;;5040068;28;20211;-68
2021/12/03 04:03:32;;;;;;;0.98;0.98;;;21.90;46.80;;;;;;5023836;28;20222;-69
2021/12/03 04:05:59;;;;;;;1.05;1.05;;;21.90;46.80;;;;;;5058486;28;20199;-69
2021/12/03 04:08:28;;;;;;;1.95;1.17;;;21.80;46.80;;;;;;5042880;28;20189;-69
2021/12/03 04:10:56;;;;;;;1.02;1.00;;;21.80;46.80;;;;;;5042961;28;20289;-69
2021/12/03 04:13:24;;;;;;;1.30;1.13;;;21.80;46.70;;;;;;5026758;28;20265;-68
2021/12/03 04:15:50;;;;;;;1.20;1.20;;;21.80;46.60;;;;;;5043091;28;20258;-69
2021/12/03 04:18:17;;;;;;;1.80;1.30;;;21.80;46.60;;;;;;5042063;28;20561;-69
2021/12/03 04:20:43;;;;;;;1.30;1.20;;;21.80;46.40;;;;;;5071816;22;20234;-70
2021/12/03 04:23:09;;;;;;;1.48;1.38;;;21.90;46.40;;;;;;5031474;28;20207;-69
2021/12/03 04:25:35;;;;;;;1.20;1.10;;;21.80;46.30;;;;;;5031266;28;20255;-69
2021/12/03 04:28:02;;;;;;;0.90;0.90;;;21.80;46.50;;;;;;5031154;28;20187;-70
2021/12/03 04:30:29;;;;;;;1.30;1.20;;;21.80;46.40;;;;;;5031119;28;20685;-69
2021/12/03 04:32:57;;;;;;;0.90;0.90;;;21.90;46.40;;;;;;5031064;28;20195;-70
2021/12/03 04:35:26;;;;;;;1.20;1.10;;;21.80;46.50;;;;;;5031016;28;20207;-69
2021/12/03 04:37:53;;;;;;;1.33;1.15;;;21.90;46.70;;;;;;5031056;28;20517;-69
2021/12/03 04:40:21;;;;;;;1.55;1.20;;;21.90;46.60;;;;;;5031133;28;20205;-69
2021/12/03 04:42:48;;;;;;;1.10;1.00;;;21.90;46.70;;;;;;5031284;28;20231;-69
2021/12/03 04:45:20;;;;;;;1.80;1.27;;;21.90;46.60;;;;;;5031041;28;20286;-69
2021/12/03 04:47:48;;;;;;;1.00;1.00;;;21.80;46.50;;;;;;5014299;28;20179;-70
2021/12/03 04:50:15;;;;;;;1.05;0.95;;;21.80;46.60;;;;;;5030744;28;20252;-69
2021/12/03 04:52:41;;;;;;;1.30;1.02;;;21.80;46.60;;;;;;5030856;28;20191;-70
2021/12/03 04:55:08;;;;;;;1.30;1.20;;;21.80;46.60;;;;;;5031050;28;20199;-69
2021/12/03 04:57:35;;;;;;;1.15;1.05;;;21.90;46.60;;;;;;5030689;28;20191;-69
2021/12/03 05:00:01;;;;;;;1.02;0.98;;;21.80;46.50;;;;;;5031878;28;20191;-69
2021/12/03 05:02:27;;;;;;;1.30;1.00;;;21.80;46.40;;;;;;5032293;28;20184;-70
2021/12/03 05:04:55;;;;;;;1.17;1.08;;;21.80;46.30;;;;;;5030528;28;20191;-69
2021/12/03 05:07:42;;;;;;;1.20;1.10;;;21.80;46.30;;;;;;5030759;28;20194;-68
2021/12/03 05:10:10;;;;;;;1.00;1.00;;;21.80;46.30;;;;;;5030578;28;20264;-69
2021/12/03 05:12:36;;;;;;;1.00;1.00;;;21.80;46.30;;;;;;5030799;28;20207;-71
2021/12/03 05:15:04;;;;;;;1.58;1.10;;;21.80;46.40;;;;;;5047277;28;20203;-69
2021/12/03 05:17:29;;;;;;;0.98;0.98;;;21.80;46.30;;;;;;5030263;28;20187;-68
2021/12/03 05:19:55;;;;;;;0.90;0.90;;;21.80;47.00;;;;;;5031510;28;20186;-68
2021/12/03 05:22:21;;;;;;;1.35;1.00;;;21.80;46.40;;;;;;5033794;28;20201;-69
2021/12/03 05:24:47;;;;;;;0.95;0.95;;;21.80;46.30;;;;;;5033714;28;20562;-70
2021/12/03 05:27:19;;;;;;;0.93;0.93;;;21.80;46.40;;;;;;5033830;28;20281;-69
2021/12/03 05:29:48;;;;;;;1.20;1.10;;;21.80;46.40;;;;;;5033226;28;20616;-69
2021/12/03 05:32:18;;;;;;;1.05;1.00;;;21.80;46.40;;;;;;5033758;28;20190;-69
2021/12/03 05:34:44;;;;;;;0.88;0.88;;;21.80;46.40;;;;;;5033723;28;20678;-69
2021/12/03 05:37:10;;;;;;;1.10;1.00;;;21.80;46.40;;;;;;5033690;28;20269;-70
2021/12/03 05:39:36;;;;;;;1.42;1.10;;;21.80;46.40;;;;;;5033822;28;20273;-68
2021/12/03 05:42:04;;;;;;;1.02;1.00;;;21.80;46.30;;;;;;5033620;28;20210;-69
2021/12/03 05:44:30;;;;;;;1.17;1.10;;;21.80;46.30;;;;;;5033738;28;20182;-69
2021/12/03 05:46:58;;;;;;;0.90;0.90;;;21.80;46.90;;;;;;5055147;28;20185;-69
2021/12/03 05:49:26;;;;;;;1.25;1.08;;;21.80;46.40;;;;;;5053753;28;20719;-69
2021/12/03 05:51:52;;;;;;;1.20;1.10;;;21.80;46.20;;;;;;5053791;28;20198;-69
2021/12/03 05:54:21;;;;;;;1.23;1.13;;;21.80;46.20;;;;;;5087603;28;20209;-69
2021/12/03 05:56:47;;;;;;;1.40;1.30;;;21.80;46.20;;;;;;5053824;28;20648;-70
2021/12/03 05:59:13;;;;;;;1.23;1.08;;;21.80;46.10;;;;;;5053602;28;20182;-70
2021/12/03 06:01:39;;;;;;;0.90;0.90;;;21.80;46.10;;;;;;5070295;28;20300;-69
2021/12/03 06:04:05;;;;;;;1.00;1.00;;;21.80;46.20;;;;;;5089118;28;20228;-69
2021/12/03 06:06:31;;;;;;;0.80;0.80;;;21.80;46.20;;;;;;5075288;28;20193;-70
2021/12/03 06:08:59;;;;;;;1.25;1.00;;;21.80;46.20;;;;;;5057314;28;20213;-70
2021/12/03 06:11:26;;;;;;;1.00;1.00;;;21.80;46.30;;;;;;5057174;28;20304;-70
2021/12/03 06:13:53;;;;;;;0.90;0.90;;;21.80;46.30;;;;;;5057488;28;20221;-70
2021/12/03 06:16:19;;;;;;;1.75;1.02;;;21.80;46.30;;;;;;5057478;28;20644;-70
2021/12/03 06:18:44;;;;;;;1.00;1.00;;;21.80;46.40;;;;;;5074075;28;20193;-69
2021/12/03 06:21:12;;;;;;;1.15;1.00;;;21.80;46.30;;;;;;5057044;28;20209;-69
2021/12/03 06:23:39;;;;;;;1.30;1.10;;;21.80;46.30;;;;;;5074002;28;20244;-70
2021/12/03 06:26:07;;;;;;;1.10;1.10;;;21.80;46.30;;;;;;5057060;28;20169;-70
2021/12/03 06:28:40;;;;;;;1.08;1.02;;;21.80;46.30;;;;;;5056690;28;20209;-69
2021/12/03 06:31:07;;;;;;;1.13;1.10;;;21.80;46.30;;;;;;5056877;28;20255;-69
2021/12/03 06:33:33;;;;;;;1.15;1.02;;;21.80;46.20;;;;;;5056701;28;20190;-70
2021/12/03 06:35:59;;;;;;;1.30;1.20;;;21.80;46.10;;;;;;5057150;28;20285;-69
2021/12/03 06:38:26;;;;;;;1.05;1.05;;;21.80;46.10;;;;;;5073538;28;20215;-69
2021/12/03 06:40:53;;;;;;;1.05;1.05;;;21.80;45.90;;;;;;5056657;28;20202;-69
2021/12/03 06:43:19;;;;;;;0.98;0.98;;;21.80;46.00;;;;;;5056990;28;20181;-70
2021/12/03 06:45:46;;;;;;;1.30;1.20;;;21.80;46.00;;;;;;5090467;28;20255;-70
2021/12/03 06:48:15;;;;;;;1.25;1.15;;;21.80;45.80;;;;;;5074362;28;20186;-70
2021/12/03 06:50:43;;;;;;;1.40;1.30;;;21.80;45.90;;;;;;5056509;28;20198;-70
2021/12/03 06:53:15;;;;;;;1.20;1.10;;;21.80;45.90;;;;;;5056554;28;20656;-70
2021/12/03 06:55:52;;;;;;;1.30;1.20;;;21.70;45.90;;;;;;5090277;28;20217;-70
2021/12/03 06:58:21;;;;;;;0.90;0.90;;;21.80;46.00;;;;;;5047819;28;20236;-70
2021/12/03 07:00:51;;;;;;;0.90;0.90;;;21.80;46.10;;;;;;5028751;28;20229;-69
2021/12/03 07:03:17;;;;;;;1.13;1.08;;;21.80;46.10;;;;;;5036307;28;20243;-69
2021/12/03 07:05:43;;;;;;;1.27;1.10;;;21.80;46.10;;;;;;5036455;28;20193;-69
2021/12/03 07:08:09;;;;;;;1.10;1.10;;;21.80;46.20;;;;;;5036403;28;20194;-70
2021/12/03 07:10:36;;;;;;;0.98;0.90;;;21.80;46.20;;;;;;5076589;28;20217;-69
2021/12/03 07:13:02;;;;;;;1.20;1.10;;;21.80;46.10;;;;;;5036068;28;20211;-70
2021/12/03 07:15:28;;;;;;;1.08;1.05;;;21.80;46.10;;;;;;5069133;28;20217;-70
2021/12/03 07:17:54;;;;;;;1.10;1.00;;;21.80;46.00;;;;;;5036212;28;20179;-69
2021/12/03 07:20:22;;;;;;;1.55;1.20;;;21.80;46.00;;;;;;5036505;28;20221;-69
2021/12/03 07:22:49;;;;;;;1.35;1.23;;;21.80;45.90;;;;;;5052905;28;20633;-69
2021/12/03 07:25:16;;;;;;;1.02;1.02;;;21.70;45.70;;;;;;5052621;28;20182;-70
2021/12/03 07:27:42;;;;;;;1.20;1.02;;;21.80;45.80;;;;;;5035942;28;20240;-69
2021/12/03 07:30:12;;;;;;;1.23;1.13;;;21.80;45.80;;;;;;5035787;28;20198;-69
2021/12/03 07:32:38;;;;;;;1.25;1.15;;;21.80;45.80;;;;;;5035802;28;20240;-69
2021/12/03 07:35:07;;;;;;;1.42;1.20;;;21.80;45.70;;;;;;5052315;28;20260;-69
2021/12/03 07:37:33;;;;;;;1.45;0.95;;;21.70;45.70;;;;;;5035674;28;20175;-69
2021/12/03 07:40:06;;;;;;;1.00;1.00;;;21.70;45.90;;;;;;5053326;28;20183;-69
2021/12/03 07:42:35;;;;;;;1.08;1.08;;;21.80;45.90;;;;;;5053248;28;20182;-69
2021/12/03 07:45:05;;;;;;;1.08;1.02;;;21.70;45.90;;;;;;5035889;28;20232;-69
2021/12/03 07:47:31;;;;;;;1.02;1.00;;;21.80;46.00;;;;;;5068151;28;20182;-68
2021/12/03 07:49:57;;;;;;;1.30;1.20;;;21.70;45.80;;;;;;5035235;28;20181;-69
2021/12/03 07:52:24;;;;;;;1.15;1.05;;;21.80;46.00;;;;;;5052194;28;20276;-69
2021/12/03 07:54:50;;;;;;;1.00;1.00;;;21.80;45.90;;;;;;5052287;28;20213;-69
2021/12/03 07:57:16;;;;;;;1.13;1.10;;;21.80;46.00;;;;;;5035292;28;20190;-69
2021/12/03 07:59:42;;;;;;;0.93;0.82;;;21.80;46.00;;;;;;5035180;28;20187;-69
2021/12/03 08:02:08;;;;;;;1.02;0.93;;;21.80;45.90;;;;;;5035150;28;20202;-69
2021/12/03 08:04:34;;;;;;;1.20;1.10;;;21.80;45.90;;;;;;5035024;28;20190;-69
2021/12/03 08:07:01;;;;;;;1.30;1.15;;;21.80;45.80;;;;;;5035218;28;20257;-69
2021/12/03 08:09:27;;;;;;;1.35;1.20;;;21.80;45.80;;;;;;5034841;28;20183;-69
2021/12/03 08:11:53;;;;;;;1.63;1.20;;;21.80;45.70;;;;;;5051889;28;20590;-69
2021/12/03 08:14:18;;;;;;;1.50;1.35;;;21.80;45.70;;;;;;5035243;28;20203;-69
2021/12/03 08:16:44;;;;;;;1.52;1.40;;;21.80;45.50;;;;;;5035137;28;20330;-69
2021/12/03 08:19:10;;;;;;;1.33;1.20;;;21.80;45.80;;;;;;5034708;28;20186;-69
2021/12/03 08:21:36;;;;;;;2.05;1.40;;;21.80;45.60;;;;;;5051567;28;20213;-69
2021/12/03 08:24:03;;;;;;;1.77;1.20;;;21.80;45.60;;;;;;5034946;28;20205;-69
2021/12/03 08:26:29;;;;;;;1.08;1.08;;;21.70;45.60;;;;;;5050818;28;20682;-69
2021/12/03 08:28:55;;;;;;;1.10;1.10;;;21.80;45.60;;;;;;5034664;28;20248;-69
2021/12/03 08:31:21;;;;;;;1.25;1.15;;;21.70;45.50;;;;;;5068146;28;20221;-69
2021/12/03 08:33:48;;;;;;;1.33;1.15;;;21.80;45.70;;;;;;5034833;28;20175;-69
2021/12/03 08:36:14;;;;;;;1.00;1.00;;;21.70;45.60;;;;;;5025328;28;20205;-69
2021/12/03 08:38:41;;;;;;;1.10;1.10;;;21.80;45.70;;;;;;5034722;28;20174;-70
2021/12/03 08:41:10;;;;;;;1.15;1.05;;;21.80;45.80;;;;;;5067649;28;20289;-69
2021/12/03 08:43:36;;;;;;;1.38;1.20;;;21.80;45.80;;;;;;5051304;28;20190;-70
2021/12/03 08:46:11;;;;;;;1.30;1.20;;;21.80;45.80;;;;;;5034555;28;20175;-70
2021/12/03 08:48:39;;;;;;;1.35;1.17;;;21.80;45.80;;;;;;5047705;28;20554;-70
2021/12/03 08:56:30;;;;;;;1.40;1.30;;;21.80;45.50;;;;;;5059918;28;20178;-69
2021/12/03 08:58:55;;;;;;;1.40;1.30;;;21.80;45.30;;;;;;5051167;28;20227;-69
2021/12/03 09:01:21;;;;;;;1.25;1.13;;;21.80;45.50;;;;;;5051001;28;20203;-70
2021/12/03 09:03:48;;;;;;;1.30;1.20;;;21.80;45.60;;;;;;5051566;28;20193;-69
2021/12/03 09:06:13;;;;;;;1.40;1.05;;;21.80;45.40;;;;;;5034754;28;20233;-69
2021/12/03 09:08:39;;;;;;;2.58;1.42;;;21.80;45.50;;;;;;5033820;28;20182;-69
2021/12/03 09:11:05;;;;;;;1.55;1.23;;;21.80;45.50;;;;;;5034305;28;20199;-69
2021/12/03 09:13:32;;;;;;;1.33;1.17;;;21.80;45.50;;;;;;5034225;28;20285;-70
2021/12/03 09:16:05;;;;;;;1.45;1.35;;;21.80;45.60;;;;;;5034282;28;20269;-69
2021/12/03 09:18:39;;;;;;;1.45;1.20;;;21.80;45.60;;;;;;5034016;28;20202;-70
2021/12/03 09:21:14;;;;;;;1.55;1.27;;;21.80;45.60;;;;;;5034160;28;20197;-70
2021/12/03 09:26:16;;;;;;;1.75;1.10;;;21.90;45.80;;;;;;5052000;28;20175;-69
2021/12/03 09:28:57;;;;;;;0.93;0.90;;;21.80;45.60;;;;;;5051699;28;20243;-70
2021/12/03 09:31:23;;;;;;;1.13;1.02;;;21.90;45.50;;;;;;5067673;28;20203;-70
2021/12/03 09:33:50;;;;;;;1.40;1.30;;;21.90;45.30;;;;;;5050618;28;20202;-70
2021/12/03 09:36:16;;;;;;;0.90;0.90;;;21.90;45.40;;;;;;5034342;28;20277;-70
2021/12/03 09:38:41;;;;;;;1.30;1.20;;;21.80;45.30;;;;;;5035209;28;20214;-70
2021/12/03 09:41:17;;;;;;;1.10;1.00;;;21.80;45.40;;;;;;5037724;28;20205;-69
2021/12/03 09:43:48;;;;;;;1.08;1.00;;;21.80;45.40;;;;;;5038545;28;20301;-70
2021/12/03 09:46:18;;;;;;;1.20;1.10;;;21.90;45.60;;;;;;5071250;28;20182;-70
2021/12/03 09:51:38;;;;;;;1.15;1.05;;;21.90;45.60;;;;;;5035823;28;20272;-70
2021/12/03 09:56:46;;;;;;;1.30;1.10;;;21.90;45.60;;;;;;5050970;28;20704;-70
2021/12/03 10:15:25;;;;;;;1.10;1.10;;;21.90;45.60;;;;;;5037240;28;20210;-70
2021/12/03 10:35:00;;;;;;;1.40;1.00;;;22.00;45.60;;;;;;5074528;28;20204;-69
2021/12/03 10:37:39;;;;;;;1.75;1.25;;;22.00;45.60;;;;;;5028733;28;20190;-69
2021/12/03 10:41:08;;;;;;;2.60;1.35;;;22.00;45.50;;;;;;5053493;28;20228;-69
2021/12/03 10:52:08;;;;;;;1.10;1.00;;;22.00;45.60;;;;;;5054319;28;20216;-69
2021/12/03 11:59:00;;;;;;;1.70;1.00;;;22.00;45.60;;;;;;5035331;28;20196;-71
2021/12/03 12:16:42;;;;;;;1.20;1.10;;;22.00;45.40;;;;;;5071397;28;20684;-69
2021/12/03 14:14:53;;;;;;;1.15;1.05;;;22.00;45.50;;;;;;5075054;28;20250;-68
2021/12/03 14:24:58;;;;;;;0.90;0.90;;;22.00;45.50;;;;;;5074862;28;20212;-68
2021/12/03 14:47:11;;;;;;;1.10;1.00;;;22.00;45.30;;;;;;5037022;28;20265;-71
2021/12/03 14:52:49;;;;;;;1.10;1.00;;;22.00;45.40;;;;;;5056518;28;20235;-68
2021/12/03 14:55:26;;;;;;;1.10;1.00;;;22.00;45.40;;;;;;5072265;28;20200;-68
2021/12/03 14:58:08;;;;;;;1.27;0.93;;;22.00;45.40;;;;;;5036493;28;20194;-68
2021/12/03 15:37:18;;;;;;;1.13;1.02;;;21.90;45.40;;;;;;5055891;28;20209;-68
2021/12/03 15:56:25;;;;;;;1.30;1.20;;;22.00;45.50;;;;;;5073061;28;20204;-67
2021/12/03 16:07:00;;;;;;;1.30;1.20;;;21.90;45.20;;;;;;5055367;28;20181;-68
2021/12/03 16:17:52;;;;;;;1.40;1.30;;;21.90;45.50;;;;;;5072583;28;20257;-67
2021/12/03 16:47:17;;;;;;;1.50;1.40;;;21.90;45.20;;;;;;5026529;28;20183;-70
2021/12/03 16:52:32;;;;;;;1.38;1.27;;;21.90;45.30;;;;;;5032396;28;20199;-70
2021/12/03 16:55:00;;;;;;;1.98;1.50;;;21.90;45.30;;;;;;5014752;28;20532;-71
2021/12/03 16:57:36;;;;;;;1.70;1.60;;;21.90;45.10;;;;;;5017487;28;20259;-70
2021/12/03 17:00:36;;;;;;;1.70;1.60;;;21.90;45.20;;;;;;5014586;28;20611;-70
2021/12/03 17:03:21;;;;;;;1.52;1.40;;;21.90;45.10;;;;;;5030638;28;20215;-70
2021/12/03 17:46:23;;;;;;;2.63;1.80;;;21.90;45.30;;;;;;5051759;28;20189;-70
2021/12/03 17:48:47;;;;;;;5.05;1.60;;;22.00;45.40;;;;;;5051507;28;20581;-70
2021/12/03 17:51:37;;;;;;;2.17;1.65;;;22.00;45.30;;;;;;5050625;28;20241;-70
2021/12/03 17:54:11;;;;;;;1.80;1.70;;;22.00;45.20;;;;;;5030498;28;20265;-70
2021/12/03 17:56:43;;;;;;;2.42;1.70;;;21.90;45.10;;;;;;5030533;28;20183;-69
2021/12/03 18:01:45;;;;;;;2.55;1.83;;;21.90;45.20;;;;;;5017865;28;20207;-70
2021/12/03 18:04:24;;;;;;;3.00;1.85;;;22.00;45.40;;;;;;5032232;28;20185;-70
2021/12/03 18:43:51;;;;;;;2.70;1.60;;;21.90;45.10;;;;;;5045644;28;20227;-70
2021/12/03 18:49:17;;;;;;;2.80;1.75;;;22.00;45.30;;;;;;5074452;28;20180;-70
2021/12/03 18:56:55;;;;;;;2.20;1.90;;;22.00;45.20;;;;;;5053084;28;20240;-70
2021/12/03 18:59:25;;;;;;;2.35;1.90;;;22.00;45.20;;;;;;5052933;28;20179;-70
2021/12/03 19:01:51;;;;;;;2.05;1.85;;;22.00;45.20;;;;;;5052879;28;20289;-70
2021/12/03 19:09:32;;;;;;;1.90;1.67;;;21.90;45.00;;;;;;5052728;28;20193;-70
2021/12/03 19:12:09;;;;;;;2.45;1.90;;;21.90;45.20;;;;;;5052373;28;20205;-70
2021/12/03 19:14:39;;;;;;;2.47;1.70;;;22.00;45.30;;;;;;5036186;28;20693;-69
2021/12/03 19:17:08;;;;;;;2.28;1.80;;;22.00;45.30;;;;;;5054885;28;20181;-69
2021/12/03 19:19:40;;;;;;;2.97;1.70;;;21.90;45.20;;;;;;5039585;28;20178;-72
2021/12/03 19:22:06;;;;;;;1.95;1.85;;;21.90;45.20;;;;;;5061673;28;20626;-70
2021/12/03 19:24:32;;;;;;;2.08;1.77;;;22.00;45.20;;;;;;5036099;28;20186;-70
2021/12/03 19:26:59;;;;;;;3.17;2.30;;;21.90;45.10;;;;;;5035962;28;20193;-70
2021/12/03 19:29:25;;;;;;;2.25;1.90;;;22.00;45.10;;;;;;5035717;28;20190;-70
2021/12/03 19:31:52;;;;;;;3.10;2.13;;;22.00;45.10;;;;;;5056893;28;20201;-70
2021/12/03 19:34:26;;;;;;;2.63;2.08;;;21.90;45.10;;;;;;5055676;28;20223;-71
2021/12/03 19:36:55;;;;;;;3.42;2.20;;;21.90;45.10;;;;;;5033999;28;20189;-70
2021/12/03 19:39:24;;;;;;;2.17;1.88;;;21.90;45.10;;;;;;5035405;28;20178;-71
2021/12/03 19:42:05;;;;;;;2.67;1.77;;;22.00;45.20;;;;;;5060311;28;20224;-70
2021/12/03 19:47:08;;;;;;;2.45;1.75;;;22.00;45.20;;;;;;5038065;28;20181;-70
2021/12/03 19:49:43;;;;;;;3.28;1.95;;;22.00;45.30;;;;;;5055332;28;20190;-70
2021/12/03 19:52:19;;;;;;;3.55;1.80;;;22.00;45.20;;;;;;5072185;28;20201;-70
2021/12/03 19:54:45;;;;;;;2.05;1.75;;;22.00;45.20;;;;;;5073238;28;20197;-70
2021/12/03 19:57:11;;;;;;;2.00;1.80;;;22.00;45.20;;;;;;5038323;28;20188;-70
2021/12/03 19:59:37;;;;;;;2.13;1.92;;;21.90;45.10;;;;;;5054953;28;20189;-70
2021/12/03 20:02:03;;;;;;;3.63;2.38;;;22.00;45.10;;;;;;5053806;28;20197;-70
2021/12/03 20:04:28;;;;;;;2.95;2.22;;;22.00;45.20;;;;;;5018783;28;20228;-70
2021/12/03 20:06:54;;;;;;;2.58;2.10;;;22.00;45.10;;;;;;5044170;28;20221;-70
2021/12/03 20:09:24;;;;;;;3.47;2.70;;;22.00;45.10;;;;;;5038233;28;20280;-70
2021/12/03 20:11:53;;;;;;;3.22;2.58;;;22.00;45.10;;;;;;5068193;28;20249;-70
2021/12/03 20:14:21;;;;;;;3.13;2.40;;;21.90;45.10;;;;;;5059957;28;20594;-70
2021/12/03 20:17:02;;;;;;;2.40;2.20;;;22.00;45.20;;;;;;5051693;28;20174;-70
2021/12/03 20:19:33;;;;;;;3.20;1.92;;;22.00;45.10;;;;;;5051577;28;20189;-70
2021/12/03 20:22:19;;;;;;;1.98;1.77;;;21.90;45.80;;;;;;5050680;28;20210;-70
2021/12/03 20:27:40;;;;;;;2.45;2.22;;;22.00;45.20;;;;;;5053764;28;20192;-70
2021/12/03 20:36:20;;;;;;;2.47;1.83;;;21.90;45.10;;;;;;5054855;28;20216;-70
2021/12/03 20:38:29;;;;;;;4.22;2.13;;;21.90;45.10;;;;;;5051412;28;20193;-70
2021/12/03 20:41:01;;;;;;;2.65;1.85;;;22.00;45.20;;;;;;5054948;28;20251;-70
2021/12/03 20:46:07;;;;;;;2.35;2.05;;;22.00;45.30;;;;;;5048088;28;20190;-69
2021/12/03 20:49:04;;;;;;;2.60;1.90;;;21.90;45.20;;;;;;5054528;28;20705;-70
2021/12/03 20:51:45;;;;;;;3.13;2.30;;;22.00;45.20;;;;;;5054319;28;20209;-70
2021/12/03 21:10:05;;;;;;;2.10;1.60;;;22.00;45.10;;;;;;5054404;28;20170;-70
2021/12/03 21:12:37;;;;;;;2.50;1.80;;;22.00;45.20;;;;;;5054567;28;20288;-70
2021/12/03 21:22:39;;;;;;;2.05;1.88;;;22.00;45.20;;;;;;5072059;28;20205;-70
2021/12/03 21:25:09;;;;;;;2.03;1.88;;;22.00;45.20;;;;;;5037845;28;20193;-70
2021/12/03 21:27:38;;;;;;;2.40;1.92;;;22.00;45.20;;;;;;5071832;28;20243;-70